createdAt,value
2022-11-05T00:01:06.666Z,1013.97
2022-11-05T00:03:06.718Z,1013.97
2022-11-05T00:05:06.709Z,1014.02
2022-11-05T00:07:06.783Z,1014.03
2022-11-05T00:09:06.812Z,1014.03
2022-11-05T00:11:06.686Z,1014.03
2022-11-05T00:13:06.808Z,1014.03
2022-11-05T00:15:06.710Z,1014.08
2022-11-05T00:17:06.735Z,1014.13
2022-11-05T00:19:06.887Z,1014.10
2022-11-05T00:21:06.796Z,1014.10
2022-11-05T00:23:06.711Z,1014.14
2022-11-05T00:25:06.786Z,1014.16
2022-11-05T00:27:06.663Z,1014.18
2022-11-05T00:29:06.691Z,1014.17
2022-11-05T00:31:06.726Z,1014.17
2022-11-05T00:33:06.722Z,1014.17
2022-11-05T00:35:06.815Z,1014.22
2022-11-05T00:37:36.708Z,1014.25
2022-11-05T00:39:36.740Z,1014.22
2022-11-05T00:41:36.690Z,1014.22
2022-11-05T00:43:36.685Z,1014.26
2022-11-05T00:45:36.726Z,1014.30
2022-11-05T00:47:36.704Z,1014.33
2022-11-05T00:49:36.784Z,1014.33
2022-11-05T00:51:36.742Z,1014.37
2022-11-05T00:53:36.784Z,1014.38
2022-11-05T00:55:36.815Z,1014.39
2022-11-05T00:57:36.926Z,1014.44
2022-11-05T00:59:36.701Z,1014.44
2022-11-05T01:01:36.815Z,1014.47
2022-11-05T01:03:36.760Z,1014.49
2022-11-05T01:05:36.688Z,1014.51
2022-11-05T01:07:36.778Z,1014.51
2022-11-05T01:09:36.755Z,1014.51
2022-11-05T01:11:36.789Z,1014.49
2022-11-05T01:13:36.715Z,1014.49
2022-11-05T01:15:36.730Z,1014.56
2022-11-05T01:17:36.700Z,1014.56
2022-11-05T01:19:36.812Z,1014.56
2022-11-05T01:21:36.739Z,1014.57
2022-11-05T01:23:36.993Z,1014.62
2022-11-05T01:25:36.771Z,1014.61
2022-11-05T01:27:36.735Z,1014.61
2022-11-05T01:29:36.827Z,1014.70
2022-11-05T01:31:36.827Z,1014.74
2022-11-05T01:33:36.779Z,1014.79
2022-11-05T01:35:36.817Z,1014.80
2022-11-05T01:37:36.840Z,1014.80
2022-11-05T01:39:37.061Z,1014.85
2022-11-05T01:41:36.784Z,1014.84
2022-11-05T01:43:36.788Z,1014.83
2022-11-05T01:45:36.816Z,1014.83
2022-11-05T01:47:36.715Z,1014.82
2022-11-05T01:53:39.531Z,1014.85
2022-11-05T01:55:39.437Z,1014.85
2022-11-05T01:57:39.456Z,1014.89
2022-11-05T01:59:39.393Z,1014.89
2022-11-05T02:01:39.548Z,1014.89
2022-11-05T02:03:39.409Z,1014.92
2022-11-05T02:05:39.399Z,1014.92
2022-11-05T02:07:39.563Z,1014.94
2022-11-05T02:09:39.390Z,1014.94
2022-11-05T02:11:39.413Z,1014.97
2022-11-05T02:13:39.426Z,1014.97
2022-11-05T02:15:39.522Z,1014.98
2022-11-05T02:17:39.441Z,1014.98
2022-11-05T02:19:39.436Z,1014.97
2022-11-05T02:21:39.419Z,1014.95
2022-11-05T02:23:39.451Z,1014.95
2022-11-05T02:25:39.461Z,1014.98
2022-11-05T02:27:39.577Z,1015.00
2022-11-05T02:29:39.426Z,1015.00
2022-11-05T02:31:39.391Z,1014.97
2022-11-05T02:33:39.499Z,1014.97
2022-11-05T02:35:39.411Z,1014.97
2022-11-05T02:37:39.454Z,1015.00
2022-11-05T02:39:39.533Z,1015.03
2022-11-05T02:42:09.415Z,1015.04
2022-11-05T02:44:09.452Z,1015.02
2022-11-05T02:46:09.460Z,1015.02
2022-11-05T02:48:09.402Z,1015.05
2022-11-05T02:50:09.433Z,1015.05
2022-11-05T02:52:09.418Z,1015.11
2022-11-05T02:54:09.439Z,1015.11
2022-11-05T02:56:09.432Z,1015.11
2022-11-05T02:58:09.543Z,1015.13
2022-11-05T03:00:09.541Z,1015.13
2022-11-05T03:02:09.561Z,1015.15
2022-11-05T03:04:09.512Z,1015.15
2022-11-05T03:06:09.487Z,1015.15
2022-11-05T03:08:09.422Z,1015.11
2022-11-05T03:10:09.446Z,1015.08
2022-11-05T03:12:09.460Z,1015.10
2022-11-05T03:14:09.642Z,1015.10
2022-11-05T03:16:09.490Z,1015.10
2022-11-05T03:18:09.471Z,1015.11
2022-11-05T03:20:09.468Z,1015.11
2022-11-05T03:22:09.505Z,1015.14
2022-11-05T03:24:09.427Z,1015.14
2022-11-05T03:26:09.470Z,1015.14
2022-11-05T03:28:09.461Z,1015.16
2022-11-05T03:30:09.657Z,1015.20
2022-11-05T03:32:09.502Z,1015.22
2022-11-05T03:34:09.438Z,1015.22
2022-11-05T03:36:09.503Z,1015.28
2022-11-05T03:38:09.466Z,1015.28
2022-11-05T03:40:09.484Z,1015.31
2022-11-05T03:42:09.482Z,1015.31
2022-11-05T03:44:09.660Z,1015.31
2022-11-05T03:46:09.466Z,1015.34
2022-11-05T03:48:09.535Z,1015.35
2022-11-05T03:50:09.450Z,1015.36
2022-11-05T03:52:09.512Z,1015.36
2022-11-05T03:54:09.500Z,1015.42
2022-11-05T03:56:09.541Z,1015.42
2022-11-05T03:58:09.556Z,1015.44
2022-11-05T04:00:09.489Z,1015.51
2022-11-05T04:02:09.586Z,1015.51
2022-11-05T04:04:09.521Z,1015.59
2022-11-05T04:06:09.494Z,1015.58
2022-11-05T04:08:14.117Z,1015.61
2022-11-05T04:10:09.477Z,1015.60
2022-11-05T04:12:09.462Z,1015.60
2022-11-05T04:14:09.480Z,1015.62
2022-11-05T04:16:09.520Z,1015.66
2022-11-05T04:18:09.490Z,1015.67
2022-11-05T04:20:09.616Z,1015.67
2022-11-05T04:22:09.470Z,1015.73
2022-11-05T04:24:09.688Z,1015.77
2022-11-05T04:26:09.484Z,1015.77
2022-11-05T04:28:09.516Z,1015.88
2022-11-05T04:30:09.539Z,1015.88
2022-11-05T04:32:09.485Z,1015.93
2022-11-05T04:34:09.488Z,1015.94
2022-11-05T04:36:09.630Z,1015.94
2022-11-05T04:38:39.529Z,1016.06
2022-11-05T04:40:39.525Z,1016.06
2022-11-05T04:42:39.652Z,1016.06
2022-11-05T04:44:39.486Z,1016.06
2022-11-05T04:46:39.514Z,1016.03
2022-11-05T04:48:39.535Z,1016.03
2022-11-05T04:50:39.546Z,1016.04
2022-11-05T04:52:39.474Z,1016.06
2022-11-05T04:54:39.502Z,1016.09
2022-11-05T04:56:39.523Z,1016.15
2022-11-05T04:58:39.494Z,1016.15
2022-11-05T05:00:39.551Z,1016.14
2022-11-05T05:02:39.628Z,1016.13
2022-11-05T05:04:39.523Z,1016.16
2022-11-05T05:06:39.531Z,1016.17
2022-11-05T05:08:39.666Z,1016.17
2022-11-05T05:10:39.576Z,1016.16
2022-11-05T05:12:39.504Z,1016.20
2022-11-05T05:14:39.510Z,1016.20
2022-11-05T05:16:39.544Z,1016.20
2022-11-05T05:18:45.052Z,1016.20
2022-11-05T05:20:39.649Z,1016.22
2022-11-05T05:22:39.594Z,1016.22
2022-11-05T05:24:39.504Z,1016.27
2022-11-05T05:26:39.519Z,1016.27
2022-11-05T05:28:39.557Z,1016.34
2022-11-05T05:30:39.545Z,1016.38
2022-11-05T05:32:39.539Z,1016.40
2022-11-05T05:34:39.520Z,1016.41
2022-11-05T05:36:39.506Z,1016.41
2022-11-05T05:38:39.582Z,1016.43
2022-11-05T05:40:39.623Z,1016.47
2022-11-05T05:42:43.120Z,1016.49
2022-11-05T05:44:39.548Z,1016.54
2022-11-05T05:46:39.537Z,1016.54
2022-11-05T05:48:39.529Z,1016.57
2022-11-05T05:50:39.561Z,1016.58
2022-11-05T05:52:39.517Z,1016.64
2022-11-05T05:54:42.458Z,1016.64
2022-11-05T05:56:39.608Z,1016.68
2022-11-05T05:58:39.626Z,1016.68
2022-11-05T06:00:39.568Z,1016.74
2022-11-05T06:02:39.770Z,1016.78
2022-11-05T06:04:39.571Z,1016.78
2022-11-05T06:06:39.680Z,1016.83
2022-11-05T06:08:39.551Z,1016.84
2022-11-05T06:10:39.601Z,1016.87
2022-11-05T06:12:39.762Z,1016.88
2022-11-05T06:14:39.610Z,1016.88
2022-11-05T06:16:39.536Z,1016.87
2022-11-05T06:18:39.579Z,1016.90
2022-11-05T06:20:39.603Z,1016.91
2022-11-05T06:22:39.534Z,1016.91
2022-11-05T06:24:39.542Z,1016.98
2022-11-05T06:26:39.558Z,1016.98
2022-11-05T06:28:39.719Z,1017.01
2022-11-05T06:30:39.594Z,1017.05
2022-11-05T06:32:39.595Z,1017.05
2022-11-05T06:35:09.602Z,1017.16
2022-11-05T06:37:09.581Z,1017.16
2022-11-05T06:39:09.647Z,1017.16
2022-11-05T06:41:12.174Z,1017.25
2022-11-05T06:43:10.055Z,1017.31
2022-11-05T06:45:09.606Z,1017.33
2022-11-05T06:47:09.552Z,1017.33
2022-11-05T06:49:09.558Z,1017.34
2022-11-05T06:51:09.621Z,1017.38
2022-11-05T06:53:09.880Z,1017.40
2022-11-05T06:55:09.558Z,1017.40
2022-11-05T06:57:09.611Z,1017.45
2022-11-05T06:59:09.604Z,1017.48
2022-11-05T07:01:09.642Z,1017.50
2022-11-05T07:03:09.756Z,1017.56
2022-11-05T07:05:09.591Z,1017.56
2022-11-05T07:07:09.573Z,1017.60
2022-11-05T07:09:09.648Z,1017.65
2022-11-05T07:11:09.603Z,1017.67
2022-11-05T07:13:09.669Z,1017.73
2022-11-05T07:15:09.580Z,1017.73
2022-11-05T07:17:09.569Z,1017.78
2022-11-05T07:19:09.630Z,1017.78
2022-11-05T07:21:09.597Z,1017.85
2022-11-05T07:23:09.868Z,1017.85
2022-11-05T07:25:09.604Z,1017.91
2022-11-05T07:27:09.574Z,1017.91
2022-11-05T07:29:09.568Z,1017.97
2022-11-05T07:31:09.669Z,1017.99
2022-11-05T07:33:09.930Z,1017.99
2022-11-05T07:35:09.590Z,1018.04
2022-11-05T07:37:09.616Z,1018.06
2022-11-05T07:39:09.676Z,1018.07
2022-11-05T07:41:09.599Z,1018.09
2022-11-05T07:43:09.962Z,1018.09
2022-11-05T07:45:09.591Z,1018.14
2022-11-05T07:47:09.649Z,1018.15
2022-11-05T07:49:09.581Z,1018.17
2022-11-05T07:51:09.628Z,1018.17
2022-11-05T07:53:10.084Z,1018.16
2022-11-05T07:55:09.739Z,1018.19
2022-11-05T07:57:09.611Z,1018.23
2022-11-05T07:59:09.590Z,1018.23
2022-11-05T08:01:09.813Z,1018.23
2022-11-05T08:03:09.891Z,1018.33
2022-11-05T08:05:09.755Z,1018.36
2022-11-05T08:07:09.583Z,1018.42
2022-11-05T08:09:09.678Z,1018.41
2022-11-05T08:11:09.603Z,1018.41
2022-11-05T08:13:10.048Z,1018.45
2022-11-05T08:15:09.735Z,1018.44
2022-11-05T08:17:10.764Z,1018.47
2022-11-05T08:19:09.677Z,1018.47
2022-11-05T08:21:09.707Z,1018.46
2022-11-05T08:23:10.005Z,1018.47
2022-11-05T08:25:09.812Z,1018.50
2022-11-05T08:27:09.766Z,1018.48
2022-11-05T08:29:09.809Z,1018.48
2022-11-05T08:31:39.684Z,1018.49
2022-11-05T08:33:39.663Z,1018.54
2022-11-05T08:35:39.817Z,1018.51
2022-11-05T08:37:39.738Z,1018.54
2022-11-05T08:39:39.762Z,1018.54
2022-11-05T08:41:18.758Z,1018.54
2022-11-05T08:43:18.730Z,1018.65
2022-11-05T08:45:18.687Z,1018.69
2022-11-05T08:47:18.649Z,1018.72
2022-11-05T08:49:18.689Z,1018.72
2022-11-05T08:51:18.693Z,1018.69
2022-11-05T08:53:18.750Z,1018.72
2022-11-05T08:55:18.733Z,1018.72
2022-11-05T08:57:18.769Z,1018.72
2022-11-05T08:59:18.779Z,1018.72
2022-11-05T09:01:18.864Z,1018.71
2022-11-05T09:03:18.701Z,1018.78
2022-11-05T09:05:18.671Z,1018.77
2022-11-05T09:07:48.648Z,1018.80
2022-11-05T09:09:48.670Z,1018.79
2022-11-05T09:12:11.093Z,1018.79
2022-11-05T09:13:48.785Z,1018.79
2022-11-05T09:15:48.827Z,1018.81
2022-11-05T09:17:48.698Z,1018.84
2022-11-05T09:19:48.713Z,1018.84
2022-11-05T09:21:48.755Z,1018.84
2022-11-05T09:23:48.810Z,1018.90
2022-11-05T09:25:48.692Z,1018.93
2022-11-05T09:27:48.680Z,1018.93
2022-11-05T09:29:48.776Z,1018.93
2022-11-05T09:31:48.660Z,1018.92
2022-11-05T09:33:48.655Z,1018.97
2022-11-05T09:35:48.675Z,1019.02
2022-11-05T09:37:48.671Z,1019.01
2022-11-05T09:39:48.647Z,1019.01
2022-11-05T09:41:48.790Z,1019.06
2022-11-05T09:43:48.809Z,1019.08
2022-11-05T09:45:48.718Z,1019.14
2022-11-05T09:47:48.653Z,1019.16
2022-11-05T09:49:48.770Z,1019.16
2022-11-05T09:51:48.711Z,1019.21
2022-11-05T09:53:48.695Z,1019.21
2022-11-05T09:55:48.835Z,1019.24
2022-11-05T09:57:48.695Z,1019.24
2022-11-05T09:59:48.830Z,1019.26
2022-11-05T10:01:48.812Z,1019.26
2022-11-05T10:03:48.739Z,1019.28
2022-11-05T10:05:48.833Z,1019.29
2022-11-05T10:07:48.783Z,1019.29
2022-11-05T10:09:48.787Z,1019.34
2022-11-05T10:11:48.786Z,1019.37
2022-11-05T10:13:48.819Z,1019.37
2022-11-05T10:15:48.827Z,1019.36
2022-11-05T10:17:48.804Z,1019.36
2022-11-05T10:19:48.766Z,1019.38
2022-11-05T10:22:05.595Z,1019.39
2022-11-05T10:23:48.803Z,1019.38
2022-11-05T10:25:48.809Z,1019.38
2022-11-05T10:27:48.803Z,1019.39
2022-11-05T10:29:48.869Z,1019.42
2022-11-05T10:31:48.687Z,1019.46
2022-11-05T10:33:48.735Z,1019.47
2022-11-05T10:35:48.738Z,1019.47
2022-11-05T10:37:48.782Z,1019.52
2022-11-05T10:39:48.779Z,1019.48
2022-11-05T10:41:48.871Z,1019.48
2022-11-05T10:43:48.696Z,1019.47
2022-11-05T10:45:48.847Z,1019.47
2022-11-05T10:47:48.724Z,1019.46
2022-11-05T10:49:48.753Z,1019.46
2022-11-05T10:51:48.787Z,1019.46
2022-11-05T10:53:48.815Z,1019.46
2022-11-05T10:55:48.805Z,1019.42
2022-11-05T10:57:48.819Z,1019.45
2022-11-05T10:59:48.714Z,1019.45
2022-11-05T11:01:48.917Z,1019.46
2022-11-05T11:04:19.015Z,1019.46
2022-11-05T11:06:18.820Z,1019.46
2022-11-05T11:08:18.780Z,1019.47
2022-11-05T11:10:18.832Z,1019.51
2022-11-05T11:12:18.820Z,1019.53
2022-11-05T11:14:18.894Z,1019.53
2022-11-05T11:16:18.819Z,1019.61
2022-11-05T11:18:18.931Z,1019.63
2022-11-05T11:20:18.856Z,1019.67
2022-11-05T11:22:18.875Z,1019.67
2022-11-05T11:24:18.820Z,1019.67
2022-11-05T11:26:18.799Z,1019.72
2022-11-05T11:28:18.843Z,1019.74
2022-11-05T11:30:18.772Z,1019.76
2022-11-05T11:32:18.877Z,1019.76
2022-11-05T11:34:18.813Z,1019.77
2022-11-05T11:36:18.772Z,1019.78
2022-11-05T11:38:18.782Z,1019.78
2022-11-05T11:40:18.763Z,1019.84
2022-11-05T11:42:18.804Z,1019.84
2022-11-05T11:44:18.834Z,1019.85
2022-11-05T11:46:18.868Z,1019.85
2022-11-05T11:48:18.775Z,1019.85
2022-11-05T11:50:18.829Z,1019.87
2022-11-05T11:52:18.799Z,1019.87
2022-11-05T11:54:18.876Z,1019.91
2022-11-05T11:56:18.824Z,1019.89
2022-11-05T11:58:18.868Z,1019.89
2022-11-05T12:00:18.919Z,1019.89
2022-11-05T12:02:18.977Z,1019.94
2022-11-05T12:04:18.806Z,1019.94
2022-11-05T12:06:18.781Z,1019.94
2022-11-05T12:08:18.810Z,1019.94
2022-11-05T12:10:18.974Z,1019.94
2022-11-05T12:12:18.868Z,1019.94
2022-11-05T12:14:18.929Z,1019.94
2022-11-05T12:16:18.902Z,1019.85
2022-11-05T12:18:18.765Z,1019.91
2022-11-05T12:20:19.133Z,1019.91
2022-11-05T12:22:19.070Z,1019.91
2022-11-05T12:24:18.874Z,1019.87
2022-11-05T12:26:18.874Z,1019.89
2022-11-05T12:28:18.897Z,1019.89
2022-11-05T12:30:18.846Z,1019.77
2022-11-05T12:32:19.015Z,1019.82
2022-11-05T12:34:18.842Z,1019.88
2022-11-05T12:36:18.834Z,1019.85
2022-11-05T12:38:18.813Z,1019.85
2022-11-05T12:40:18.813Z,1019.85
2022-11-05T12:42:19.035Z,1019.94
2022-11-05T12:44:18.886Z,1019.94
2022-11-05T12:46:18.880Z,1019.93
2022-11-05T12:48:24.670Z,1019.93
2022-11-05T12:50:18.857Z,1019.97
2022-11-05T12:52:18.839Z,1019.97
2022-11-05T12:54:18.856Z,1019.97
2022-11-05T12:56:18.919Z,1019.97
2022-11-05T12:58:18.937Z,1019.95
2022-11-05T13:00:48.822Z,1020.00
2022-11-05T13:02:48.919Z,1020.03
2022-11-05T13:04:48.832Z,1020.03
2022-11-05T13:06:48.853Z,1019.98
2022-11-05T13:08:48.878Z,1020.00
2022-11-05T13:10:48.938Z,1020.00
2022-11-05T13:12:48.891Z,1020.00
2022-11-05T13:14:48.933Z,1020.02
2022-11-05T13:16:48.894Z,1020.00
2022-11-05T13:18:48.956Z,1020.06
2022-11-05T13:20:48.822Z,1020.06
2022-11-05T13:22:48.845Z,1020.10
2022-11-05T13:24:48.897Z,1020.10
2022-11-05T13:26:48.902Z,1020.13
2022-11-05T13:28:48.916Z,1020.13
2022-11-05T13:30:48.804Z,1020.15
2022-11-05T13:32:49.051Z,1020.13
2022-11-05T13:34:49.016Z,1020.16
2022-11-05T13:36:49.081Z,1020.17
2022-11-05T13:38:49.433Z,1020.17
2022-11-05T13:40:48.913Z,1020.21
2022-11-05T13:42:49.045Z,1020.23
2022-11-05T13:44:49.036Z,1020.20
2022-11-05T13:46:48.933Z,1020.23
2022-11-05T13:48:51.510Z,1020.23
2022-11-05T13:50:48.988Z,1020.24
2022-11-05T13:52:48.987Z,1020.24
2022-11-05T13:54:49.017Z,1020.29
2022-11-05T13:56:49.062Z,1020.29
2022-11-05T13:58:48.992Z,1020.30
2022-11-05T14:00:49.217Z,1020.34
2022-11-05T14:02:49.819Z,1020.36
2022-11-05T14:04:49.099Z,1020.36
2022-11-05T14:06:48.987Z,1020.36
2022-11-05T14:08:48.955Z,1020.41
2022-11-05T14:10:49.086Z,1020.44
2022-11-05T14:12:49.039Z,1020.47
2022-11-05T14:14:49.916Z,1020.48
2022-11-05T14:16:49.062Z,1020.48
2022-11-05T14:18:48.983Z,1020.52
2022-11-05T14:20:49.168Z,1020.52
2022-11-05T14:22:49.169Z,1020.52
2022-11-05T14:24:49.099Z,1020.52
2022-11-05T14:26:49.176Z,1020.54
2022-11-05T14:28:49.140Z,1020.54
2022-11-05T14:30:49.197Z,1020.55
2022-11-05T14:32:50.170Z,1020.54
2022-11-05T14:34:49.202Z,1020.54
2022-11-05T14:36:49.157Z,1020.54
2022-11-05T14:38:49.144Z,1020.54
2022-11-05T14:40:49.066Z,1020.60
2022-11-05T14:42:49.209Z,1020.60
2022-11-05T14:44:49.246Z,1020.60
2022-11-05T14:46:49.152Z,1020.60
2022-11-05T14:48:50.487Z,1020.68
2022-11-05T14:50:49.061Z,1020.72
2022-11-05T14:52:49.191Z,1020.67
2022-11-05T14:55:19.254Z,1020.67
2022-11-05T14:57:19.086Z,1020.71
2022-11-05T14:59:19.195Z,1020.77
2022-11-05T15:01:19.337Z,1020.75
2022-11-05T15:03:21.478Z,1020.75
2022-11-05T15:05:19.317Z,1020.73
2022-11-05T15:07:19.180Z,1020.65
2022-11-05T15:09:19.127Z,1020.71
2022-11-05T15:11:19.089Z,1020.81
2022-11-05T15:13:18.920Z,1020.81
2022-11-05T15:15:21.951Z,1020.83
2022-11-05T15:17:19.261Z,1020.87
2022-11-05T15:19:18.945Z,1020.85
2022-11-05T15:21:19.346Z,1020.85
2022-11-05T15:23:19.206Z,1020.85
2022-11-05T15:25:19.345Z,1020.89
2022-11-05T15:27:19.120Z,1020.89
2022-11-05T15:29:19.159Z,1020.91
2022-11-05T15:31:19.269Z,1020.91
2022-11-05T15:33:19.680Z,1020.91
2022-11-05T15:35:28.190Z,1020.93
2022-11-05T15:37:19.162Z,1020.95
2022-11-05T15:39:28.558Z,1020.96
2022-11-05T15:41:19.066Z,1020.96
2022-11-05T15:43:19.184Z,1020.97
2022-11-05T15:45:19.108Z,1020.97
2022-11-05T15:47:19.051Z,1020.99
2022-11-05T15:49:19.086Z,1020.88
2022-11-05T15:51:19.125Z,1020.88
2022-11-05T15:53:44.286Z,1020.91
2022-11-05T15:57:19.001Z,1020.97
2022-11-05T15:59:18.999Z,1020.97
2022-11-05T16:03:32.544Z,1021.04
2022-11-05T16:05:32.538Z,1021.06
2022-11-05T16:07:32.547Z,1021.06
2022-11-05T16:09:32.605Z,1021.06
2022-11-05T16:11:32.519Z,1021.05
2022-11-05T16:13:32.466Z,1021.03
2022-11-05T16:15:32.522Z,1021.03
2022-11-05T16:17:32.507Z,1021.03
2022-11-05T16:19:37.077Z,1021.03
2022-11-05T16:21:32.550Z,1021.05
2022-11-05T16:23:32.598Z,1021.08
2022-11-05T16:25:32.490Z,1021.11
2022-11-05T16:27:32.486Z,1021.11
2022-11-05T16:29:32.517Z,1021.23
2022-11-05T16:31:32.561Z,1021.26
2022-11-05T16:33:32.639Z,1021.28
2022-11-05T16:35:32.669Z,1021.33
2022-11-05T16:37:32.710Z,1021.33
2022-11-05T16:39:32.640Z,1021.33
2022-11-05T16:41:32.606Z,1021.32
2022-11-05T16:43:32.502Z,1021.37
2022-11-05T16:45:34.913Z,1021.38
2022-11-05T16:47:32.545Z,1021.38
2022-11-05T16:49:32.578Z,1021.38
2022-11-05T16:51:32.591Z,1021.46
2022-11-05T16:53:32.618Z,1021.51
2022-11-05T16:55:32.531Z,1021.56
2022-11-05T16:57:32.520Z,1021.56
2022-11-05T16:59:32.637Z,1021.64
2022-11-05T17:01:32.910Z,1021.69
2022-11-05T17:03:32.567Z,1021.72
2022-11-05T17:05:32.562Z,1021.72
2022-11-05T17:07:35.835Z,1021.68
2022-11-05T17:09:32.583Z,1021.61
2022-11-05T17:11:32.521Z,1021.53
2022-11-05T17:13:32.522Z,1021.57
2022-11-05T17:15:32.787Z,1021.57
2022-11-05T17:17:32.749Z,1021.67
2022-11-05T17:19:32.759Z,1021.72
2022-11-05T17:21:32.809Z,1021.74
2022-11-05T17:23:32.767Z,1021.77
2022-11-05T17:25:32.789Z,1021.77
2022-11-05T17:27:32.745Z,1021.70
2022-11-05T17:29:32.557Z,1021.70
2022-11-05T17:31:32.593Z,1021.51
2022-11-05T17:33:32.575Z,1021.51
2022-11-05T17:35:32.580Z,1021.69
2022-11-05T17:37:32.611Z,1021.79
2022-11-05T17:39:32.593Z,1021.83
2022-11-05T17:42:02.579Z,1021.83
2022-11-05T17:44:02.566Z,1021.74
2022-11-05T17:46:04.723Z,1021.69
2022-11-05T17:48:02.556Z,1021.69
2022-11-05T17:50:02.585Z,1021.67
2022-11-05T17:52:02.620Z,1021.78
2022-11-05T17:54:02.604Z,1021.80
2022-11-05T17:56:02.590Z,1021.77
2022-11-05T17:58:02.523Z,1021.77
2022-11-05T18:00:02.552Z,1021.86
2022-11-05T18:02:02.609Z,1021.88
2022-11-05T18:04:08.327Z,1021.89
2022-11-05T18:06:02.645Z,1021.89
2022-11-05T18:08:02.671Z,1021.94
2022-11-05T18:10:02.619Z,1021.94
2022-11-05T18:12:02.600Z,1021.94
2022-11-05T18:14:02.575Z,1021.97
2022-11-05T18:16:02.657Z,1021.97
2022-11-05T18:18:02.559Z,1021.99
2022-11-05T18:20:02.638Z,1021.97
2022-11-05T18:22:02.619Z,1021.94
2022-11-05T18:24:02.648Z,1021.98
2022-11-05T18:26:02.551Z,1021.98
2022-11-05T18:28:02.573Z,1022.02
2022-11-05T18:30:02.600Z,1022.01
2022-11-05T18:32:02.604Z,1022.05
2022-11-05T18:34:02.653Z,1022.05
2022-11-05T18:36:02.606Z,1022.08
2022-11-05T18:38:02.685Z,1022.14
2022-11-05T18:40:02.635Z,1022.14
2022-11-05T18:42:02.588Z,1022.13
2022-11-05T18:44:02.732Z,1022.13
2022-11-05T18:46:02.585Z,1022.18
2022-11-05T18:48:02.632Z,1022.21
2022-11-05T18:50:02.678Z,1022.21
2022-11-05T18:52:02.655Z,1022.11
2022-11-05T18:54:02.657Z,1022.11
2022-11-05T18:56:02.583Z,1022.11
2022-11-05T18:58:02.728Z,1022.09
2022-11-05T19:00:02.636Z,1022.06
2022-11-05T19:02:02.707Z,1022.06
2022-11-05T19:04:02.626Z,1022.09
2022-11-05T19:06:02.649Z,1022.07
2022-11-05T19:08:02.656Z,1022.10
2022-11-05T19:10:02.661Z,1022.19
2022-11-05T19:12:02.642Z,1022.19
2022-11-05T19:14:02.593Z,1022.20
2022-11-05T19:16:02.600Z,1022.21
2022-11-05T19:18:02.617Z,1022.18
2022-11-05T19:20:02.686Z,1022.18
2022-11-05T19:22:02.717Z,1022.18
2022-11-05T19:24:02.693Z,1022.21
2022-11-05T19:26:02.583Z,1022.23
2022-11-05T19:28:02.588Z,1022.23
2022-11-05T19:30:02.648Z,1022.23
2022-11-05T19:32:02.681Z,1022.23
2022-11-05T19:34:02.648Z,1022.22
2022-11-05T19:36:02.659Z,1022.24
2022-11-05T19:38:32.698Z,1022.26
2022-11-05T19:40:32.620Z,1022.26
2022-11-05T19:42:32.712Z,1022.27
2022-11-05T19:44:32.598Z,1022.24
2022-11-05T19:46:32.627Z,1022.23
2022-11-05T19:48:32.637Z,1022.24
2022-11-05T19:50:32.664Z,1022.24
2022-11-05T19:52:32.656Z,1022.24
2022-11-05T19:54:32.654Z,1022.26
2022-11-05T19:56:32.581Z,1022.28
2022-11-05T19:58:32.574Z,1022.31
2022-11-05T20:00:32.618Z,1022.31
2022-11-05T20:02:32.667Z,1022.24
2022-11-05T20:04:32.644Z,1022.24
2022-11-05T20:06:32.687Z,1022.20
2022-11-05T20:08:32.693Z,1022.20
2022-11-05T20:10:33.006Z,1022.23
2022-11-05T20:12:32.654Z,1022.23
2022-11-05T20:14:32.606Z,1022.29
2022-11-05T20:16:32.640Z,1022.30
2022-11-05T20:18:32.640Z,1022.30
2022-11-05T20:20:32.676Z,1022.34
2022-11-05T20:22:32.678Z,1022.33
2022-11-05T20:24:32.727Z,1022.37
2022-11-05T20:26:32.612Z,1022.34
2022-11-05T20:28:32.586Z,1022.34
2022-11-05T20:30:32.626Z,1022.33
2022-11-05T20:32:32.606Z,1022.43
2022-11-05T20:34:32.685Z,1022.47
2022-11-05T20:36:32.675Z,1022.47
2022-11-05T20:38:32.714Z,1022.47
2022-11-05T20:40:32.624Z,1022.43
2022-11-05T20:42:32.756Z,1022.43
2022-11-05T20:44:32.659Z,1022.42
2022-11-05T20:46:32.699Z,1022.42
2022-11-05T20:48:32.680Z,1022.47
2022-11-05T20:50:32.740Z,1022.45
2022-11-05T20:52:32.730Z,1022.45
2022-11-05T20:54:32.721Z,1022.46
2022-11-05T20:56:32.646Z,1022.46
2022-11-05T20:58:32.612Z,1022.42
2022-11-05T21:00:32.683Z,1022.42
2022-11-05T21:02:32.747Z,1022.50
2022-11-05T21:04:32.707Z,1022.50
2022-11-05T21:06:32.823Z,1022.54
2022-11-05T21:08:32.707Z,1022.57
2022-11-05T21:10:32.777Z,1022.57
2022-11-05T21:12:32.718Z,1022.54
2022-11-05T21:14:32.623Z,1022.54
2022-11-05T21:16:32.732Z,1022.58
2022-11-05T21:18:32.942Z,1022.63
2022-11-05T21:20:32.725Z,1022.62
2022-11-05T21:22:33.081Z,1022.64
2022-11-05T21:24:32.732Z,1022.64
2022-11-05T21:26:32.713Z,1022.65
2022-11-05T21:28:32.774Z,1022.59
2022-11-05T21:30:32.703Z,1022.58
2022-11-05T21:32:32.683Z,1022.58
2022-11-05T21:35:02.740Z,1022.51
2022-11-05T21:37:02.760Z,1022.51
2022-11-05T21:39:02.766Z,1022.48
2022-11-05T21:41:02.710Z,1022.46
2022-11-05T21:43:02.782Z,1022.51
2022-11-05T21:45:02.800Z,1022.51
2022-11-05T21:47:02.851Z,1022.51
2022-11-05T21:49:02.773Z,1022.51
2022-11-05T21:51:02.790Z,1022.49
2022-11-05T21:53:02.796Z,1022.51
2022-11-05T21:55:02.753Z,1022.52
2022-11-05T21:57:04.235Z,1022.52
2022-11-05T21:59:02.718Z,1022.44
2022-11-05T22:01:02.697Z,1022.43
2022-11-05T22:03:02.740Z,1022.46
2022-11-05T22:05:02.722Z,1022.46
2022-11-05T22:07:02.760Z,1022.52
2022-11-05T22:09:02.810Z,1022.50
2022-11-05T22:11:02.715Z,1022.49
2022-11-05T22:13:02.781Z,1022.49
2022-11-05T22:15:02.678Z,1022.49
2022-11-05T22:17:02.748Z,1022.51
2022-11-05T22:19:02.720Z,1022.55
2022-11-05T22:21:02.884Z,1022.51
2022-11-05T22:23:04.529Z,1022.44
2022-11-05T22:25:02.765Z,1022.44
2022-11-05T22:27:02.687Z,1022.44
2022-11-05T22:29:02.694Z,1022.45
2022-11-05T22:31:02.728Z,1022.45
2022-11-05T22:33:02.711Z,1022.45
2022-11-05T22:35:02.703Z,1022.34
2022-11-05T22:37:02.818Z,1022.34
2022-11-05T22:39:02.656Z,1022.34
2022-11-05T22:41:02.661Z,1022.34
2022-11-05T22:43:02.788Z,1022.34
2022-11-05T22:45:02.723Z,1022.34
2022-11-05T22:47:02.781Z,1022.34
2022-11-05T22:49:02.740Z,1022.34
2022-11-05T22:51:02.775Z,1022.34
2022-11-05T22:53:02.795Z,1022.34
2022-11-05T22:55:02.819Z,1022.34
2022-11-05T22:57:02.788Z,1022.34
2022-11-05T22:59:02.705Z,1022.34
2022-11-05T23:01:02.707Z,1022.34
2022-11-05T23:03:02.930Z,1022.12
2022-11-05T23:05:02.769Z,1022.10
2022-11-05T23:07:02.746Z,1022.00
2022-11-05T23:09:02.716Z,1022.00
2022-11-05T23:11:02.777Z,1022.00
2022-11-05T23:13:02.778Z,1022.03
2022-11-05T23:15:04.515Z,1022.03
2022-11-05T23:17:02.832Z,1022.03
2022-11-05T23:19:02.681Z,1022.07
2022-11-05T23:23:02.728Z,1022.11
2022-11-05T23:25:02.736Z,1022.10
2022-11-05T23:27:14.522Z,1022.08
2022-11-05T23:29:14.372Z,1022.06
2022-11-05T23:31:14.392Z,1022.06
2022-11-05T23:33:14.394Z,1022.02
2022-11-05T23:35:14.395Z,1022.02
2022-11-05T23:37:14.467Z,1022.01
2022-11-05T23:39:14.384Z,1022.01
2022-11-05T23:41:14.519Z,1021.96
2022-11-05T23:43:14.425Z,1021.94
2022-11-05T23:45:14.941Z,1021.99
2022-11-05T23:47:14.415Z,1022.00
2022-11-05T23:49:14.414Z,1022.00
2022-11-05T23:51:14.427Z,1021.99
2022-11-05T23:53:14.417Z,1021.98
2022-11-05T23:55:14.388Z,1021.94
2022-11-05T23:57:14.469Z,1021.95
2022-11-05T23:59:14.424Z,1021.95
